sensor_id;sensor_type;location;lat;lon;timestamp;P1;durP1;ratioP1;P2;durP2;ratioP2
5811;SDS011;2932;52.400;9.558;2023-07-16T00:01:17;5.90;;;1.00;;
5811;SDS011;2932;52.400;9.558;2023-07-16T00:03:42;1.33;;;1.00;;
5811;SDS011;2932;52.400;9.558;2023-07-16T00:06:08;3.10;;;1.23;;
5811;SDS011;2932;52.400;9.558;2023-07-16T00:08:33;1.42;;;1.27;;
5811;SDS011;2932;52.400;9.558;2023-07-16T00:10:58;1.70;;;1.02;;
5811;SDS011;2932;52.400;9.558;2023-07-16T00:13:24;1.90;;;1.20;;
5811;SDS011;2932;52.400;9.558;2023-07-16T00:15:49;2.80;;;1.45;;
5811;SDS011;2932;52.400;9.558;2023-07-16T00:18:14;2.80;;;1.20;;
5811;SDS011;2932;52.400;9.558;2023-07-16T00:20:40;3.05;;;1.40;;
5811;SDS011;2932;52.400;9.558;2023-07-16T00:23:05;2.65;;;1.20;;
5811;SDS011;2932;52.400;9.558;2023-07-16T00:25:30;2.05;;;1.20;;
5811;SDS011;2932;52.400;9.558;2023-07-16T00:27:55;2.72;;;1.05;;
5811;SDS011;2932;52.400;9.558;2023-07-16T00:30:21;2.33;;;1.10;;
5811;SDS011;2932;52.400;9.558;2023-07-16T00:32:46;2.53;;;1.40;;
5811;SDS011;2932;52.400;9.558;2023-07-16T00:35:11;2.78;;;1.63;;
5811;SDS011;2932;52.400;9.558;2023-07-16T00:37:37;1.88;;;1.20;;
5811;SDS011;2932;52.400;9.558;2023-07-16T00:40:02;5.03;;;1.52;;
5811;SDS011;2932;52.400;9.558;2023-07-16T00:42:29;2.20;;;1.13;;
5811;SDS011;2932;52.400;9.558;2023-07-16T00:44:54;4.82;;;1.73;;
5811;SDS011;2932;52.400;9.558;2023-07-16T00:47:19;2.53;;;1.50;;
5811;SDS011;2932;52.400;9.558;2023-07-16T00:49:45;2.70;;;1.30;;
5811;SDS011;2932;52.400;9.558;2023-07-16T00:52:11;2.17;;;1.30;;
5811;SDS011;2932;52.400;9.558;2023-07-16T00:54:41;1.65;;;1.33;;
5811;SDS011;2932;52.400;9.558;2023-07-16T00:57:06;5.28;;;1.50;;
5811;SDS011;2932;52.400;9.558;2023-07-16T00:59:32;1.60;;;0.88;;
5811;SDS011;2932;52.400;9.558;2023-07-16T01:01:58;2.72;;;1.35;;
5811;SDS011;2932;52.400;9.558;2023-07-16T01:04:23;1.15;;;1.10;;
5811;SDS011;2932;52.400;9.558;2023-07-16T01:06:50;3.63;;;1.30;;
5811;SDS011;2932;52.400;9.558;2023-07-16T01:09:19;1.63;;;1.40;;
5811;SDS011;2932;52.400;9.558;2023-07-16T01:11:45;1.63;;;1.20;;
5811;SDS011;2932;52.400;9.558;2023-07-16T01:14:14;2.00;;;1.23;;
5811;SDS011;2932;52.400;9.558;2023-07-16T01:16:42;2.38;;;1.15;;
5811;SDS011;2932;52.400;9.558;2023-07-16T01:19:07;4.05;;;1.10;;
5811;SDS011;2932;52.400;9.558;2023-07-16T01:30:08;2.58;;;1.35;;
5811;SDS011;2932;52.400;9.558;2023-07-16T01:32:36;2.38;;;1.40;;
5811;SDS011;2932;52.400;9.558;2023-07-16T01:35:03;2.40;;;1.10;;
5811;SDS011;2932;52.400;9.558;2023-07-16T01:37:30;2.65;;;1.30;;
5811;SDS011;2932;52.400;9.558;2023-07-16T01:39:56;2.35;;;1.30;;
5811;SDS011;2932;52.400;9.558;2023-07-16T01:42:22;1.70;;;1.30;;
5811;SDS011;2932;52.400;9.558;2023-07-16T01:44:47;4.93;;;1.30;;
5811;SDS011;2932;52.400;9.558;2023-07-16T01:49:53;1.65;;;1.10;;
5811;SDS011;2932;52.400;9.558;2023-07-16T01:52:18;2.25;;;1.27;;
5811;SDS011;2932;52.400;9.558;2023-07-16T01:54:43;2.72;;;1.20;;
5811;SDS011;2932;52.400;9.558;2023-07-16T01:57:09;3.60;;;1.52;;
5811;SDS011;2932;52.400;9.558;2023-07-16T01:59:34;2.75;;;1.25;;
5811;SDS011;2932;52.400;9.558;2023-07-16T02:01:59;2.67;;;1.15;;
5811;SDS011;2932;52.400;9.558;2023-07-16T02:04:25;2.38;;;1.20;;
5811;SDS011;2932;52.400;9.558;2023-07-16T02:06:50;2.05;;;1.27;;
5811;SDS011;2932;52.400;9.558;2023-07-16T02:09:15;1.67;;;1.20;;
5811;SDS011;2932;52.400;9.558;2023-07-16T02:11:41;1.25;;;1.08;;
5811;SDS011;2932;52.400;9.558;2023-07-16T02:14:06;1.35;;;1.20;;
5811;SDS011;2932;52.400;9.558;2023-07-16T02:16:31;3.50;;;1.20;;
5811;SDS011;2932;52.400;9.558;2023-07-16T02:18:57;2.33;;;1.23;;
5811;SDS011;2932;52.400;9.558;2023-07-16T02:21:22;1.88;;;1.20;;
5811;SDS011;2932;52.400;9.558;2023-07-16T02:23:47;2.97;;;1.30;;
5811;SDS011;2932;52.400;9.558;2023-07-16T02:26:12;3.03;;;1.35;;
5811;SDS011;2932;52.400;9.558;2023-07-16T02:28:38;2.45;;;1.38;;
5811;SDS011;2932;52.400;9.558;2023-07-16T02:31:04;2.25;;;1.60;;
5811;SDS011;2932;52.400;9.558;2023-07-16T02:33:30;2.42;;;1.30;;
5811;SDS011;2932;52.400;9.558;2023-07-16T02:35:55;3.20;;;1.40;;
5811;SDS011;2932;52.400;9.558;2023-07-16T02:38:20;1.42;;;1.10;;
5811;SDS011;2932;52.400;9.558;2023-07-16T02:40:46;2.00;;;1.20;;
5811;SDS011;2932;52.400;9.558;2023-07-16T02:43:12;3.08;;;1.55;;
5811;SDS011;2932;52.400;9.558;2023-07-16T02:45:38;1.98;;;1.23;;
5811;SDS011;2932;52.400;9.558;2023-07-16T02:48:04;3.05;;;1.33;;
5811;SDS011;2932;52.400;9.558;2023-07-16T02:50:33;2.22;;;1.40;;
5811;SDS011;2932;52.400;9.558;2023-07-16T02:52:59;2.75;;;1.20;;
5811;SDS011;2932;52.400;9.558;2023-07-16T02:55:24;4.80;;;1.42;;
5811;SDS011;2932;52.400;9.558;2023-07-16T02:57:49;1.65;;;1.40;;
5811;SDS011;2932;52.400;9.558;2023-07-16T03:00:15;2.83;;;1.15;;
5811;SDS011;2932;52.400;9.558;2023-07-16T03:02:40;2.28;;;1.35;;
5811;SDS011;2932;52.400;9.558;2023-07-16T03:05:06;3.67;;;1.67;;
5811;SDS011;2932;52.400;9.558;2023-07-16T03:07:31;3.15;;;1.40;;
5811;SDS011;2932;52.400;9.558;2023-07-16T03:09:56;2.38;;;1.60;;
5811;SDS011;2932;52.400;9.558;2023-07-16T03:12:22;2.45;;;1.38;;
5811;SDS011;2932;52.400;9.558;2023-07-16T03:14:47;5.28;;;1.48;;
5811;SDS011;2932;52.400;9.558;2023-07-16T03:17:12;2.90;;;1.38;;
5811;SDS011;2932;52.400;9.558;2023-07-16T03:19:38;2.55;;;1.42;;
5811;SDS011;2932;52.400;9.558;2023-07-16T03:22:03;1.83;;;1.40;;
5811;SDS011;2932;52.400;9.558;2023-07-16T03:24:29;1.80;;;1.15;;
5811;SDS011;2932;52.400;9.558;2023-07-16T03:26:54;2.97;;;1.48;;
5811;SDS011;2932;52.400;9.558;2023-07-16T03:29:19;1.75;;;1.02;;
5811;SDS011;2932;52.400;9.558;2023-07-16T03:31:45;2.90;;;1.48;;
5811;SDS011;2932;52.400;9.558;2023-07-16T03:34:10;3.70;;;1.52;;
5811;SDS011;2932;52.400;9.558;2023-07-16T03:36:35;4.90;;;1.67;;
5811;SDS011;2932;52.400;9.558;2023-07-16T03:39:00;1.83;;;1.40;;
5811;SDS011;2932;52.400;9.558;2023-07-16T03:41:26;3.05;;;1.85;;
5811;SDS011;2932;52.400;9.558;2023-07-16T03:43:51;2.72;;;1.70;;
5811;SDS011;2932;52.400;9.558;2023-07-16T03:46:16;2.08;;;1.30;;
5811;SDS011;2932;52.400;9.558;2023-07-16T03:48:42;3.13;;;1.67;;
5811;SDS011;2932;52.400;9.558;2023-07-16T03:51:07;2.38;;;1.40;;
5811;SDS011;2932;52.400;9.558;2023-07-16T03:53:32;2.92;;;1.60;;
5811;SDS011;2932;52.400;9.558;2023-07-16T03:55:58;3.83;;;1.88;;
5811;SDS011;2932;52.400;9.558;2023-07-16T03:58:23;2.53;;;1.77;;
5811;SDS011;2932;52.400;9.558;2023-07-16T04:00:48;3.05;;;1.77;;
5811;SDS011;2932;52.400;9.558;2023-07-16T04:03:14;3.00;;;1.63;;
5811;SDS011;2932;52.400;9.558;2023-07-16T04:05:39;5.05;;;2.10;;
5811;SDS011;2932;52.400;9.558;2023-07-16T04:08:04;2.53;;;1.75;;
5811;SDS011;2932;52.400;9.558;2023-07-16T04:10:33;2.15;;;1.55;;
5811;SDS011;2932;52.400;9.558;2023-07-16T04:12:58;3.38;;;1.60;;
5811;SDS011;2932;52.400;9.558;2023-07-16T04:15:24;3.72;;;1.90;;
5811;SDS011;2932;52.400;9.558;2023-07-16T04:17:49;2.05;;;1.80;;
5811;SDS011;2932;52.400;9.558;2023-07-16T04:20:14;3.85;;;2.10;;
5811;SDS011;2932;52.400;9.558;2023-07-16T04:22:40;2.33;;;1.52;;
5811;SDS011;2932;52.400;9.558;2023-07-16T04:25:05;4.57;;;1.70;;
5811;SDS011;2932;52.400;9.558;2023-07-16T04:27:31;4.22;;;1.80;;
5811;SDS011;2932;52.400;9.558;2023-07-16T04:29:56;2.50;;;1.65;;
5811;SDS011;2932;52.400;9.558;2023-07-16T04:32:22;4.60;;;1.77;;
5811;SDS011;2932;52.400;9.558;2023-07-16T04:34:47;5.70;;;1.85;;
5811;SDS011;2932;52.400;9.558;2023-07-16T04:37:12;1.77;;;1.50;;
5811;SDS011;2932;52.400;9.558;2023-07-16T04:39:37;4.85;;;1.75;;
5811;SDS011;2932;52.400;9.558;2023-07-16T04:42:03;3.08;;;1.60;;
5811;SDS011;2932;52.400;9.558;2023-07-16T04:44:28;2.92;;;1.67;;
5811;SDS011;2932;52.400;9.558;2023-07-16T04:46:54;3.15;;;1.65;;
5811;SDS011;2932;52.400;9.558;2023-07-16T04:49:19;4.07;;;2.00;;
5811;SDS011;2932;52.400;9.558;2023-07-16T04:51:44;1.50;;;1.40;;
5811;SDS011;2932;52.400;9.558;2023-07-16T04:54:09;2.75;;;1.48;;
5811;SDS011;2932;52.400;9.558;2023-07-16T04:56:35;3.72;;;1.60;;
5811;SDS011;2932;52.400;9.558;2023-07-16T04:59:00;1.70;;;1.60;;
5811;SDS011;2932;52.400;9.558;2023-07-16T05:01:26;3.22;;;1.50;;
5811;SDS011;2932;52.400;9.558;2023-07-16T05:03:52;2.67;;;1.70;;
5811;SDS011;2932;52.400;9.558;2023-07-16T05:06:17;2.17;;;1.48;;
5811;SDS011;2932;52.400;9.558;2023-07-16T05:08:42;1.80;;;1.60;;
5811;SDS011;2932;52.400;9.558;2023-07-16T05:11:08;2.53;;;1.30;;
5811;SDS011;2932;52.400;9.558;2023-07-16T05:13:33;3.53;;;1.70;;
5811;SDS011;2932;52.400;9.558;2023-07-16T05:15:58;3.25;;;1.58;;
5811;SDS011;2932;52.400;9.558;2023-07-16T05:18:24;2.65;;;1.70;;
5811;SDS011;2932;52.400;9.558;2023-07-16T05:20:49;1.60;;;1.50;;
5811;SDS011;2932;52.400;9.558;2023-07-16T05:23:14;2.70;;;1.50;;
5811;SDS011;2932;52.400;9.558;2023-07-16T05:25:46;4.30;;;1.90;;
5811;SDS011;2932;52.400;9.558;2023-07-16T05:28:13;3.58;;;1.70;;
5811;SDS011;2932;52.400;9.558;2023-07-16T05:30:39;1.77;;;1.50;;
5811;SDS011;2932;52.400;9.558;2023-07-16T05:33:08;2.42;;;1.60;;
5811;SDS011;2932;52.400;9.558;2023-07-16T05:35:34;2.40;;;1.70;;
5811;SDS011;2932;52.400;9.558;2023-07-16T05:37:59;2.42;;;1.70;;
5811;SDS011;2932;52.400;9.558;2023-07-16T05:40:25;4.25;;;1.67;;
5811;SDS011;2932;52.400;9.558;2023-07-16T05:42:50;3.05;;;1.70;;
5811;SDS011;2932;52.400;9.558;2023-07-16T05:45:15;5.28;;;1.90;;
5811;SDS011;2932;52.400;9.558;2023-07-16T05:47:41;4.55;;;1.83;;
5811;SDS011;2932;52.400;9.558;2023-07-16T05:50:06;2.80;;;1.45;;
5811;SDS011;2932;52.400;9.558;2023-07-16T05:52:32;2.20;;;1.50;;
5811;SDS011;2932;52.400;9.558;2023-07-16T05:54:57;2.95;;;1.50;;
5811;SDS011;2932;52.400;9.558;2023-07-16T05:57:23;2.65;;;1.40;;
5811;SDS011;2932;52.400;9.558;2023-07-16T05:59:48;4.95;;;1.63;;
5811;SDS011;2932;52.400;9.558;2023-07-16T06:02:13;1.38;;;1.20;;
5811;SDS011;2932;52.400;9.558;2023-07-16T06:04:39;2.45;;;1.30;;
5811;SDS011;2932;52.400;9.558;2023-07-16T06:07:04;4.20;;;1.40;;
5811;SDS011;2932;52.400;9.558;2023-07-16T06:09:30;3.42;;;1.23;;
5811;SDS011;2932;52.400;9.558;2023-07-16T06:11:55;2.58;;;1.52;;
5811;SDS011;2932;52.400;9.558;2023-07-16T06:14:20;6.18;;;1.50;;
5811;SDS011;2932;52.400;9.558;2023-07-16T06:16:46;2.35;;;1.38;;
5811;SDS011;2932;52.400;9.558;2023-07-16T06:19:11;5.03;;;1.30;;
5811;SDS011;2932;52.400;9.558;2023-07-16T06:21:36;2.38;;;1.30;;
5811;SDS011;2932;52.400;9.558;2023-07-16T06:24:02;3.17;;;1.33;;
5811;SDS011;2932;52.400;9.558;2023-07-16T06:26:27;2.05;;;1.30;;
5811;SDS011;2932;52.400;9.558;2023-07-16T06:28:52;3.92;;;1.77;;
5811;SDS011;2932;52.400;9.558;2023-07-16T06:31:18;3.35;;;1.60;;
5811;SDS011;2932;52.400;9.558;2023-07-16T06:33:43;6.75;;;1.75;;
5811;SDS011;2932;52.400;9.558;2023-07-16T06:36:11;4.07;;;1.33;;
5811;SDS011;2932;52.400;9.558;2023-07-16T06:38:37;4.30;;;1.58;;
5811;SDS011;2932;52.400;9.558;2023-07-16T06:41:02;2.10;;;1.30;;
5811;SDS011;2932;52.400;9.558;2023-07-16T06:43:27;3.47;;;1.60;;
5811;SDS011;2932;52.400;9.558;2023-07-16T06:45:52;2.92;;;1.50;;
5811;SDS011;2932;52.400;9.558;2023-07-16T06:48:18;5.55;;;1.65;;
5811;SDS011;2932;52.400;9.558;2023-07-16T06:50:43;4.25;;;1.50;;
5811;SDS011;2932;52.400;9.558;2023-07-16T06:53:09;6.65;;;1.90;;
5811;SDS011;2932;52.400;9.558;2023-07-16T06:55:35;4.97;;;1.60;;
5811;SDS011;2932;52.400;9.558;2023-07-16T06:58:01;4.28;;;1.60;;
5811;SDS011;2932;52.400;9.558;2023-07-16T07:00:26;4.28;;;1.80;;
5811;SDS011;2932;52.400;9.558;2023-07-16T07:02:51;4.15;;;1.67;;
5811;SDS011;2932;52.400;9.558;2023-07-16T07:05:17;4.35;;;1.70;;
5811;SDS011;2932;52.400;9.558;2023-07-16T07:07:42;4.63;;;1.88;;
5811;SDS011;2932;52.400;9.558;2023-07-16T07:10:10;3.92;;;1.80;;
5811;SDS011;2932;52.400;9.558;2023-07-16T07:12:36;4.03;;;1.52;;
5811;SDS011;2932;52.400;9.558;2023-07-16T07:15:04;4.07;;;1.75;;
5811;SDS011;2932;52.400;9.558;2023-07-16T07:17:33;2.75;;;1.50;;
5811;SDS011;2932;52.400;9.558;2023-07-16T07:19:58;3.88;;;1.88;;
5811;SDS011;2932;52.400;9.558;2023-07-16T07:22:25;5.55;;;1.85;;
5811;SDS011;2932;52.400;9.558;2023-07-16T07:24:50;2.72;;;1.70;;
5811;SDS011;2932;52.400;9.558;2023-07-16T07:27:16;4.38;;;1.83;;
5811;SDS011;2932;52.400;9.558;2023-07-16T07:29:41;5.45;;;1.88;;
5811;SDS011;2932;52.400;9.558;2023-07-16T07:32:06;5.00;;;2.10;;
5811;SDS011;2932;52.400;9.558;2023-07-16T07:34:32;3.80;;;1.80;;
5811;SDS011;2932;52.400;9.558;2023-07-16T07:36:58;4.85;;;2.00;;
5811;SDS011;2932;52.400;9.558;2023-07-16T07:39:23;5.43;;;1.88;;
5811;SDS011;2932;52.400;9.558;2023-07-16T07:41:48;5.40;;;2.10;;
5811;SDS011;2932;52.400;9.558;2023-07-16T07:44:13;5.47;;;1.85;;
5811;SDS011;2932;52.400;9.558;2023-07-16T07:46:39;6.20;;;2.10;;
5811;SDS011;2932;52.400;9.558;2023-07-16T07:49:04;4.45;;;1.98;;
5811;SDS011;2932;52.400;9.558;2023-07-16T07:51:29;4.93;;;2.22;;
5811;SDS011;2932;52.400;9.558;2023-07-16T07:53:55;3.60;;;2.03;;
5811;SDS011;2932;52.400;9.558;2023-07-16T07:56:20;7.65;;;2.33;;
5811;SDS011;2932;52.400;9.558;2023-07-16T07:58:45;6.25;;;2.13;;
5811;SDS011;2932;52.400;9.558;2023-07-16T08:01:11;7.43;;;2.42;;
5811;SDS011;2932;52.400;9.558;2023-07-16T08:03:36;4.10;;;1.42;;
5811;SDS011;2932;52.400;9.558;2023-07-16T08:06:01;6.00;;;2.30;;
5811;SDS011;2932;52.400;9.558;2023-07-16T08:08:27;3.83;;;2.15;;
5811;SDS011;2932;52.400;9.558;2023-07-16T08:10:53;3.40;;;1.73;;
5811;SDS011;2932;52.400;9.558;2023-07-16T08:13:20;4.57;;;1.92;;
5811;SDS011;2932;52.400;9.558;2023-07-16T08:15:45;6.00;;;2.20;;
5811;SDS011;2932;52.400;9.558;2023-07-16T08:18:12;6.32;;;2.35;;
5811;SDS011;2932;52.400;9.558;2023-07-16T08:20:38;2.97;;;1.83;;
5811;SDS011;2932;52.400;9.558;2023-07-16T08:23:03;7.03;;;2.55;;
5811;SDS011;2932;52.400;9.558;2023-07-16T08:25:28;5.95;;;1.88;;
5811;SDS011;2932;52.400;9.558;2023-07-16T08:27:54;3.20;;;2.00;;
5811;SDS011;2932;52.400;9.558;2023-07-16T08:30:20;5.22;;;2.30;;
5811;SDS011;2932;52.400;9.558;2023-07-16T08:32:45;6.88;;;1.95;;
5811;SDS011;2932;52.400;9.558;2023-07-16T08:35:10;5.55;;;2.30;;
5811;SDS011;2932;52.400;9.558;2023-07-16T08:37:41;3.67;;;2.17;;
5811;SDS011;2932;52.400;9.558;2023-07-16T08:40:07;3.67;;;2.40;;
5811;SDS011;2932;52.400;9.558;2023-07-16T08:42:34;4.13;;;2.10;;
5811;SDS011;2932;52.400;9.558;2023-07-16T08:45:02;3.90;;;2.00;;
5811;SDS011;2932;52.400;9.558;2023-07-16T08:47:27;4.68;;;2.10;;
5811;SDS011;2932;52.400;9.558;2023-07-16T08:49:55;4.55;;;2.08;;
5811;SDS011;2932;52.400;9.558;2023-07-16T08:52:22;6.60;;;2.03;;
5811;SDS011;2932;52.400;9.558;2023-07-16T08:54:47;4.60;;;2.38;;
5811;SDS011;2932;52.400;9.558;2023-07-16T08:57:13;5.50;;;2.10;;
5811;SDS011;2932;52.400;9.558;2023-07-16T08:59:39;4.55;;;1.85;;
5811;SDS011;2932;52.400;9.558;2023-07-16T09:02:05;6.80;;;2.60;;
5811;SDS011;2932;52.400;9.558;2023-07-16T09:04:31;3.28;;;1.83;;
5811;SDS011;2932;52.400;9.558;2023-07-16T09:06:57;5.43;;;2.17;;
5811;SDS011;2932;52.400;9.558;2023-07-16T09:09:23;2.95;;;2.17;;
5811;SDS011;2932;52.400;9.558;2023-07-16T09:11:48;6.32;;;2.08;;
5811;SDS011;2932;52.400;9.558;2023-07-16T09:14:20;4.32;;;2.03;;
5811;SDS011;2932;52.400;9.558;2023-07-16T09:16:49;4.05;;;1.80;;
5811;SDS011;2932;52.400;9.558;2023-07-16T09:19:18;3.72;;;1.67;;
5811;SDS011;2932;52.400;9.558;2023-07-16T09:21:47;5.38;;;1.60;;
5811;SDS011;2932;52.400;9.558;2023-07-16T09:24:14;3.92;;;1.88;;
5811;SDS011;2932;52.400;9.558;2023-07-16T09:26:46;5.60;;;2.03;;
5811;SDS011;2932;52.400;9.558;2023-07-16T09:29:16;3.88;;;1.80;;
5811;SDS011;2932;52.400;9.558;2023-07-16T09:31:58;4.80;;;2.10;;
5811;SDS011;2932;52.400;9.558;2023-07-16T09:34:28;4.90;;;1.92;;
5811;SDS011;2932;52.400;9.558;2023-07-16T09:36:55;4.35;;;1.85;;
5811;SDS011;2932;52.400;9.558;2023-07-16T09:39:21;3.65;;;2.00;;
5811;SDS011;2932;52.400;9.558;2023-07-16T09:41:47;4.82;;;2.22;;
5811;SDS011;2932;52.400;9.558;2023-07-16T09:44:14;4.70;;;2.17;;
5811;SDS011;2932;52.400;9.558;2023-07-16T09:46:40;5.57;;;1.90;;
5811;SDS011;2932;52.400;9.558;2023-07-16T09:49:06;8.43;;;2.47;;
5811;SDS011;2932;52.400;9.558;2023-07-16T09:51:32;4.20;;;2.00;;
5811;SDS011;2932;52.400;9.558;2023-07-16T09:54:01;6.25;;;1.92;;
5811;SDS011;2932;52.400;9.558;2023-07-16T09:56:26;6.18;;;1.88;;
5811;SDS011;2932;52.400;9.558;2023-07-16T09:59:07;3.63;;;1.70;;
5811;SDS011;2932;52.400;9.558;2023-07-16T10:01:36;3.22;;;1.90;;
5811;SDS011;2932;52.400;9.558;2023-07-16T10:04:12;3.40;;;2.03;;
5811;SDS011;2932;52.400;9.558;2023-07-16T10:06:48;5.78;;;2.00;;
5811;SDS011;2932;52.400;9.558;2023-07-16T10:09:14;2.97;;;1.75;;
5811;SDS011;2932;52.400;9.558;2023-07-16T10:11:40;4.20;;;2.00;;
5811;SDS011;2932;52.400;9.558;2023-07-16T10:14:07;4.65;;;1.77;;
5811;SDS011;2932;52.400;9.558;2023-07-16T10:16:35;2.80;;;1.77;;
5811;SDS011;2932;52.400;9.558;2023-07-16T10:19:04;2.33;;;1.75;;
5811;SDS011;2932;52.400;9.558;2023-07-16T10:21:29;4.57;;;2.00;;
5811;SDS011;2932;52.400;9.558;2023-07-16T10:24:03;3.60;;;1.90;;
5811;SDS011;2932;52.400;9.558;2023-07-16T10:26:30;3.03;;;1.95;;
5811;SDS011;2932;52.400;9.558;2023-07-16T10:28:55;3.55;;;1.75;;
5811;SDS011;2932;52.400;9.558;2023-07-16T10:31:21;3.33;;;2.03;;
5811;SDS011;2932;52.400;9.558;2023-07-16T10:34:03;5.90;;;2.20;;
5811;SDS011;2932;52.400;9.558;2023-07-16T10:36:30;4.00;;;2.30;;
5811;SDS011;2932;52.400;9.558;2023-07-16T10:39:02;4.85;;;2.00;;
5811;SDS011;2932;52.400;9.558;2023-07-16T10:41:29;4.38;;;2.40;;
5811;SDS011;2932;52.400;9.558;2023-07-16T10:43:56;6.88;;;2.53;;
5811;SDS011;2932;52.400;9.558;2023-07-16T10:46:22;3.75;;;2.20;;
5811;SDS011;2932;52.400;9.558;2023-07-16T10:48:47;5.03;;;2.10;;
5811;SDS011;2932;52.400;9.558;2023-07-16T10:51:16;4.40;;;2.42;;
5811;SDS011;2932;52.400;9.558;2023-07-16T10:53:42;3.67;;;1.90;;
5811;SDS011;2932;52.400;9.558;2023-07-16T10:56:08;3.20;;;2.00;;
5811;SDS011;2932;52.400;9.558;2023-07-16T10:58:35;2.92;;;2.08;;
5811;SDS011;2932;52.400;9.558;2023-07-16T11:01:02;3.67;;;2.08;;
5811;SDS011;2932;52.400;9.558;2023-07-16T11:03:27;3.40;;;1.83;;
5811;SDS011;2932;52.400;9.558;2023-07-16T11:05:53;3.97;;;1.90;;
5811;SDS011;2932;52.400;9.558;2023-07-16T11:08:22;3.35;;;2.03;;
5811;SDS011;2932;52.400;9.558;2023-07-16T11:10:53;3.40;;;2.05;;
5811;SDS011;2932;52.400;9.558;2023-07-16T11:13:19;4.43;;;2.05;;
5811;SDS011;2932;52.400;9.558;2023-07-16T11:15:45;4.78;;;2.00;;
5811;SDS011;2932;52.400;9.558;2023-07-16T11:18:10;2.45;;;1.92;;
5811;SDS011;2932;52.400;9.558;2023-07-16T11:20:36;4.80;;;2.10;;
5811;SDS011;2932;52.400;9.558;2023-07-16T11:23:04;3.97;;;2.08;;
5811;SDS011;2932;52.400;9.558;2023-07-16T11:25:30;2.80;;;1.88;;
5811;SDS011;2932;52.400;9.558;2023-07-16T11:27:55;4.95;;;2.20;;
5811;SDS011;2932;52.400;9.558;2023-07-16T11:30:24;2.20;;;1.88;;
5811;SDS011;2932;52.400;9.558;2023-07-16T11:32:49;4.60;;;2.05;;
5811;SDS011;2932;52.400;9.558;2023-07-16T11:35:15;4.90;;;2.60;;
5811;SDS011;2932;52.400;9.558;2023-07-16T11:37:43;4.80;;;2.15;;
5811;SDS011;2932;52.400;9.558;2023-07-16T11:40:09;9.88;;;2.70;;
5811;SDS011;2932;52.400;9.558;2023-07-16T11:42:40;4.28;;;2.63;;
5811;SDS011;2932;52.400;9.558;2023-07-16T11:45:18;2.92;;;2.00;;
5811;SDS011;2932;52.400;9.558;2023-07-16T11:47:45;4.03;;;2.20;;
5811;SDS011;2932;52.400;9.558;2023-07-16T11:50:11;3.08;;;1.92;;
5811;SDS011;2932;52.400;9.558;2023-07-16T11:52:36;3.28;;;2.15;;
5811;SDS011;2932;52.400;9.558;2023-07-16T11:55:03;2.70;;;1.80;;
5811;SDS011;2932;52.400;9.558;2023-07-16T11:57:29;2.78;;;2.00;;
5811;SDS011;2932;52.400;9.558;2023-07-16T11:59:55;2.70;;;1.95;;
5811;SDS011;2932;52.400;9.558;2023-07-16T12:02:20;3.78;;;1.98;;
5811;SDS011;2932;52.400;9.558;2023-07-16T12:04:46;4.05;;;2.10;;
5811;SDS011;2932;52.400;9.558;2023-07-16T12:07:12;4.53;;;2.15;;
5811;SDS011;2932;52.400;9.558;2023-07-16T12:09:37;3.63;;;2.15;;
5811;SDS011;2932;52.400;9.558;2023-07-16T12:12:03;2.75;;;1.70;;
5811;SDS011;2932;52.400;9.558;2023-07-16T12:14:28;3.40;;;1.85;;
5811;SDS011;2932;52.400;9.558;2023-07-16T12:16:54;5.85;;;1.92;;
5811;SDS011;2932;52.400;9.558;2023-07-16T12:19:20;3.30;;;2.10;;
5811;SDS011;2932;52.400;9.558;2023-07-16T12:21:45;4.10;;;2.10;;
5811;SDS011;2932;52.400;9.558;2023-07-16T12:24:11;3.28;;;2.17;;
5811;SDS011;2932;52.400;9.558;2023-07-16T12:26:36;3.45;;;2.00;;
5811;SDS011;2932;52.400;9.558;2023-07-16T12:29:02;3.08;;;2.10;;
5811;SDS011;2932;52.400;9.558;2023-07-16T12:31:29;3.17;;;1.77;;
5811;SDS011;2932;52.400;9.558;2023-07-16T12:33:56;2.78;;;1.90;;
5811;SDS011;2932;52.400;9.558;2023-07-16T12:36:21;3.17;;;2.05;;
5811;SDS011;2932;52.400;9.558;2023-07-16T12:38:46;4.93;;;1.95;;
5811;SDS011;2932;52.400;9.558;2023-07-16T12:41:12;3.97;;;2.00;;
5811;SDS011;2932;52.400;9.558;2023-07-16T12:43:40;3.90;;;1.88;;
5811;SDS011;2932;52.400;9.558;2023-07-16T12:46:05;3.58;;;1.75;;
5811;SDS011;2932;52.400;9.558;2023-07-16T12:48:31;4.95;;;2.30;;
5811;SDS011;2932;52.400;9.558;2023-07-16T12:50:56;3.83;;;2.15;;
5811;SDS011;2932;52.400;9.558;2023-07-16T12:53:22;3.22;;;2.00;;
5811;SDS011;2932;52.400;9.558;2023-07-16T12:55:48;2.80;;;1.80;;
5811;SDS011;2932;52.400;9.558;2023-07-16T12:58:13;2.40;;;1.90;;
5811;SDS011;2932;52.400;9.558;2023-07-16T13:00:38;3.60;;;2.25;;
5811;SDS011;2932;52.400;9.558;2023-07-16T13:03:04;3.35;;;1.88;;
5811;SDS011;2932;52.400;9.558;2023-07-16T13:05:30;3.00;;;1.88;;
5811;SDS011;2932;52.400;9.558;2023-07-16T13:07:55;2.92;;;1.80;;
5811;SDS011;2932;52.400;9.558;2023-07-16T13:10:22;3.55;;;1.90;;
5811;SDS011;2932;52.400;9.558;2023-07-16T13:12:48;4.40;;;2.35;;
5811;SDS011;2932;52.400;9.558;2023-07-16T13:15:13;3.45;;;2.10;;
5811;SDS011;2932;52.400;9.558;2023-07-16T13:17:39;2.92;;;2.00;;
5811;SDS011;2932;52.400;9.558;2023-07-16T13:20:04;3.53;;;1.80;;
5811;SDS011;2932;52.400;9.558;2023-07-16T13:22:30;4.50;;;1.88;;
5811;SDS011;2932;52.400;9.558;2023-07-16T13:24:56;3.63;;;1.90;;
5811;SDS011;2932;52.400;9.558;2023-07-16T13:27:22;3.47;;;2.00;;
5811;SDS011;2932;52.400;9.558;2023-07-16T13:29:48;3.75;;;2.28;;
5811;SDS011;2932;52.400;9.558;2023-07-16T13:32:13;3.40;;;2.10;;
5811;SDS011;2932;52.400;9.558;2023-07-16T13:34:38;3.25;;;1.90;;
5811;SDS011;2932;52.400;9.558;2023-07-16T13:37:04;2.58;;;1.98;;
5811;SDS011;2932;52.400;9.558;2023-07-16T13:39:29;3.70;;;2.03;;
5811;SDS011;2932;52.400;9.558;2023-07-16T13:41:54;3.85;;;2.10;;
5811;SDS011;2932;52.400;9.558;2023-07-16T13:44:20;2.92;;;2.05;;
5811;SDS011;2932;52.400;9.558;2023-07-16T13:46:46;5.07;;;2.40;;
5811;SDS011;2932;52.400;9.558;2023-07-16T13:49:11;3.03;;;1.95;;
5811;SDS011;2932;52.400;9.558;2023-07-16T13:51:37;2.30;;;1.90;;
5811;SDS011;2932;52.400;9.558;2023-07-16T13:54:02;7.03;;;2.80;;
5811;SDS011;2932;52.400;9.558;2023-07-16T13:56:28;3.63;;;2.40;;
5811;SDS011;2932;52.400;9.558;2023-07-16T13:58:53;4.82;;;2.55;;
5811;SDS011;2932;52.400;9.558;2023-07-16T14:01:19;2.97;;;2.15;;
5811;SDS011;2932;52.400;9.558;2023-07-16T14:03:44;3.10;;;2.15;;
5811;SDS011;2932;52.400;9.558;2023-07-16T14:06:10;4.13;;;2.10;;
5811;SDS011;2932;52.400;9.558;2023-07-16T14:08:38;4.10;;;2.15;;
5811;SDS011;2932;52.400;9.558;2023-07-16T14:11:03;4.32;;;2.10;;
5811;SDS011;2932;52.400;9.558;2023-07-16T14:13:28;3.75;;;2.08;;
5811;SDS011;2932;52.400;9.558;2023-07-16T14:15:54;3.42;;;2.08;;
5811;SDS011;2932;52.400;9.558;2023-07-16T14:18:19;5.10;;;2.38;;
5811;SDS011;2932;52.400;9.558;2023-07-16T14:20:45;3.42;;;2.10;;
5811;SDS011;2932;52.400;9.558;2023-07-16T14:23:10;3.20;;;2.53;;
5811;SDS011;2932;52.400;9.558;2023-07-16T14:25:36;3.60;;;2.33;;
5811;SDS011;2932;52.400;9.558;2023-07-16T14:28:01;4.15;;;2.50;;
5811;SDS011;2932;52.400;9.558;2023-07-16T14:30:26;3.08;;;2.15;;
5811;SDS011;2932;52.400;9.558;2023-07-16T14:32:52;2.92;;;2.38;;
5811;SDS011;2932;52.400;9.558;2023-07-16T14:35:17;2.80;;;2.05;;
5811;SDS011;2932;52.400;9.558;2023-07-16T14:37:42;3.58;;;2.30;;
5811;SDS011;2932;52.400;9.558;2023-07-16T14:40:08;4.13;;;2.30;;
5811;SDS011;2932;52.400;9.558;2023-07-16T14:42:34;4.93;;;2.50;;
5811;SDS011;2932;52.400;9.558;2023-07-16T14:44:59;3.30;;;2.60;;
5811;SDS011;2932;52.400;9.558;2023-07-16T14:47:24;3.45;;;2.10;;
5811;SDS011;2932;52.400;9.558;2023-07-16T14:49:50;5.35;;;2.70;;
5811;SDS011;2932;52.400;9.558;2023-07-16T14:52:15;4.88;;;2.38;;
5811;SDS011;2932;52.400;9.558;2023-07-16T14:54:40;4.20;;;2.58;;
5811;SDS011;2932;52.400;9.558;2023-07-16T14:57:09;3.58;;;2.30;;
5811;SDS011;2932;52.400;9.558;2023-07-16T14:59:34;4.05;;;2.50;;
5811;SDS011;2932;52.400;9.558;2023-07-16T15:02:00;3.17;;;2.30;;
5811;SDS011;2932;52.400;9.558;2023-07-16T15:04:25;3.00;;;2.22;;
5811;SDS011;2932;52.400;9.558;2023-07-16T15:06:51;2.38;;;2.17;;
5811;SDS011;2932;52.400;9.558;2023-07-16T15:09:16;5.72;;;2.30;;
5811;SDS011;2932;52.400;9.558;2023-07-16T15:11:41;3.08;;;2.65;;
5811;SDS011;2932;52.400;9.558;2023-07-16T15:14:07;3.28;;;2.08;;
5811;SDS011;2932;52.400;9.558;2023-07-16T15:16:32;3.30;;;2.40;;
5811;SDS011;2932;52.400;9.558;2023-07-16T15:18:58;3.53;;;2.83;;